Knoxville, TN (37914)

01:57 PM EDT die 28o April, anno 2017 (GMT -0400)
Holston Hills | | Change Station

Elev 1070 ft 36.00 °N, 83.84 °W | Updated 19 seconds ago

Partialiter Nubila
Partialiter Nubila
80.8 °F
Feels Like 83 °F
N
2.0
Ventus Variabilis Ventus from Magis Zephyrus quam Auster
Gusts 2.5 mph

Hodie
High -- | Low -- °F
--% Chance of Precip.
Yesterday
High -- | Low -- °F
Precip. -- in
Pressio 29.95 in
Visibilitas 10.0 milia passuum
Clouds Few 4500 ft
Plerumque Nubila 20000 ft
Index Caloris 83 °F
Frigus in quo Ros apparet 65 °F
Umor 59%
Rainfall 0.00 in
Snow Depth Not available.
6:45 AM 8:20 PM
Waxing Crescent, 7% visible
METAR KTYS 281753Z 26007KT 10SM FEW045 BKN200 27/17 A2998 RMK AO2 SLP142 T02670172 10267 20139 56013
Pressio 29.95 in
Visibilitas 10.0 milia passuum
Clouds Few 4500 ft
Plerumque Nubila 20000 ft
Index Caloris 83 °F
Frigus in quo Ros apparet 65 °F
Umor 59%
Rainfall 0.00 in
Snow Depth Not available.
6:45 AM 8:20 PM
Waxing Crescent, 7% visible
METAR KTYS 281753Z 26007KT 10SM FEW045 BKN200 27/17 A2998 RMK AO2 SLP142 T02670172 10267 20139 56013

Get Severe Weather Alerts

Thanks for signing up!

Be on the lookout for a verification email in your inbox.

You'll start receiving the daily forecast at 8 AM.

×

10-Day Weather Forecast

Almanac

Astronomy

Apr. 28, 2017 Rise Set
Actual Time
Civil Twilight
Nautical Twilight
Astronomical Twilight
Moon
Length Of Visible Light
Length of Day
Tomorrow will be .
, % of the Moon is Illuminated

Today's Extremes

State Highs State Lows

Community

WunderPhotos

WunderBlog® & News

Nearby

Air Quality

  Air Quality AQ Index Pollutant
Not available.

Snow Depth

Station Depth Elevation

Earthquake Activity

City Distance Mag. Time & Date
Minimum magnitude displayed is 2.5.

Coastal Water Temperatures

Locus Calor

Stations

Nearby Weather Stations

Station Location Temp Frigus Venti Frigus in quo Ros apparet Umor Ventus Precip. Elev Renovata Type
                   

Watches & Warnings

There are currently no watches in effect.